Time;durP1;ratioP1;P1;durP2;ratioP2;P2;SDS_P1;SDS_P2;PMS_P1;PMS_P2;Temp;Humidity;BMP_temperature;BMP_pressure;BME280_temperature;BME280_humidity;BME280_pressure;Samples;Min_cycle;Max_cycle;Signal;HPM_P1;HPM_P2
2022/05/20 00:00:23;;;;;;;6.63;2.13;;;;;;;;;;5099260;28;20233;-69
2022/05/20 00:02:51;;;;;;;4.07;2.30;;;;;;;;;;5099071;28;20269;-70
2022/05/20 00:05:19;;;;;;;6.37;2.13;;;;;;;;;;5099354;28;20299;-70
2022/05/20 00:07:47;;;;;;;8.87;2.43;;;;;;;;;;5098934;28;20578;-69
2022/05/20 00:10:17;;;;;;;3.53;1.93;;;;;;;;;;5099080;28;20642;-70
2022/05/20 00:12:46;;;;;;;5.00;2.03;;;;;;;;;;5098859;28;20679;-70
2022/05/20 00:15:15;;;;;;;4.70;1.93;;;;;;;;;;5099102;28;20684;-70
2022/05/20 00:17:43;;;;;;;4.13;2.20;;;;;;;;;;5098798;28;20784;-69
2022/05/20 00:20:11;;;;;;;5.90;2.97;;;;;;;;;;5098141;28;20242;-70
2022/05/20 00:22:39;;;;;;;6.00;2.50;;;;;;;;;;5098129;28;20249;-71
2022/05/20 00:27:55;;;;;;;3.57;2.30;;;;;;;;;;5098605;28;20418;-71
2022/05/20 00:30:24;;;;;;;5.73;2.00;;;;;;;;;;5097958;28;20231;-71
2022/05/20 00:32:52;;;;;;;7.43;2.27;;;;;;;;;;5095758;28;20236;-69
2022/05/20 00:35:20;;;;;;;6.17;2.20;;;;;;;;;;5094789;28;20286;-70
2022/05/20 00:37:48;;;;;;;2.90;1.70;;;;;;;;;;5097863;28;20252;-70
2022/05/20 00:40:18;;;;;;;4.43;2.30;;;;;;;;;;5097916;28;20193;-70
2022/05/20 00:42:46;;;;;;;4.57;1.90;;;;;;;;;;5097136;28;20235;-71
2022/05/20 00:45:16;;;;;;;2.67;2.03;;;;;;;;;;5097404;28;20200;-71
2022/05/20 00:47:44;;;;;;;4.37;2.23;;;;;;;;;;5096990;28;20228;-72
2022/05/20 00:50:15;;;;;;;3.90;1.90;;;;;;;;;;5097735;28;20251;-72
2022/05/20 00:52:45;;;;;;;4.83;2.33;;;;;;;;;;5097403;28;20205;-72
2022/05/20 00:55:16;;;;;;;4.07;2.40;;;;;;;;;;5097360;28;20209;-71
2022/05/20 00:57:45;;;;;;;6.47;2.13;;;;;;;;;;5098161;28;20263;-71
2022/05/20 01:00:16;;;;;;;4.70;2.00;;;;;;;;;;5097494;28;20208;-73
2022/05/20 01:02:47;;;;;;;5.63;2.03;;;;;;;;;;5096889;28;20264;-71
2022/05/20 01:05:17;;;;;;;6.57;2.10;;;;;;;;;;5094713;28;20220;-72
2022/05/20 01:07:45;;;;;;;3.53;2.20;;;;;;;;;;5096745;28;20609;-71
2022/05/20 01:10:14;;;;;;;3.17;2.20;;;;;;;;;;5096839;28;20338;-70
2022/05/20 01:12:42;;;;;;;3.97;1.97;;;;;;;;;;5096362;28;20199;-72
2022/05/20 01:15:10;;;;;;;2.60;1.70;;;;;;;;;;5096909;28;20232;-72
2022/05/20 01:17:39;;;;;;;3.40;1.90;;;;;;;;;;5093868;28;20713;-71
2022/05/20 01:20:12;;;;;;;2.43;1.87;;;;;;;;;;5096754;28;20226;-70
2022/05/20 01:22:48;;;;;;;4.30;2.00;;;;;;;;;;5096690;28;20231;-69
2022/05/20 01:25:16;;;;;;;5.57;1.80;;;;;;;;;;5096751;28;20200;-70
2022/05/20 01:27:44;;;;;;;3.53;2.07;;;;;;;;;;5096820;28;20202;-70
2022/05/20 01:30:13;;;;;;;2.97;1.90;;;;;;;;;;5096748;28;20566;-70
2022/05/20 01:32:42;;;;;;;5.37;2.10;;;;;;;;;;5096020;28;20357;-70
2022/05/20 01:35:12;;;;;;;2.83;2.50;;;;;;;;;;5095765;28;20231;-70
2022/05/20 01:37:40;;;;;;;6.00;1.83;;;;;;;;;;5096823;28;20204;-70
2022/05/20 01:40:11;;;;;;;3.83;1.73;;;;;;;;;;5097903;28;20242;-70
2022/05/20 01:42:42;;;;;;;2.70;1.77;;;;;;;;;;5097428;28;20216;-70
2022/05/20 01:45:14;;;;;;;4.33;1.70;;;;;;;;;;5097850;28;20215;-70
2022/05/20 01:47:44;;;;;;;7.13;1.80;;;;;;;;;;5097499;28;20205;-70
2022/05/20 01:50:16;;;;;;;5.97;2.20;;;;;;;;;;5097113;28;20313;-70
2022/05/20 01:52:48;;;;;;;4.03;3.40;;;;;;;;;;5091822;28;20229;-70
2022/05/20 01:55:19;;;;;;;2.90;2.17;;;;;;;;;;5093850;28;20195;-70
2022/05/20 01:57:49;;;;;;;5.83;2.17;;;;;;;;;;5095960;28;20234;-70
2022/05/20 02:00:20;;;;;;;3.57;1.90;;;;;;;;;;5095411;28;20201;-68
2022/05/20 02:02:56;;;;;;;4.60;2.47;;;;;;;;;;5095793;28;20236;-70
2022/05/20 02:05:26;;;;;;;3.77;1.80;;;;;;;;;;5094338;28;20218;-69
2022/05/20 02:07:58;;;;;;;4.90;2.40;;;;;;;;;;5096424;28;20711;-69
2022/05/20 02:10:30;;;;;;;2.30;1.80;;;;;;;;;;5097688;28;20270;-70
2022/05/20 02:13:00;;;;;;;2.27;1.60;;;;;;;;;;5097244;28;20205;-69
2022/05/20 02:15:30;;;;;;;5.03;2.60;;;;;;;;;;5097452;28;20269;-69
2022/05/20 02:18:00;;;;;;;5.03;1.87;;;;;;;;;;5097521;28;20242;-71
2022/05/20 02:20:31;;;;;;;1.80;1.40;;;;;;;;;;5097431;28;20234;-71
2022/05/20 02:23:02;;;;;;;4.03;2.30;;;;;;;;;;5097158;28;20217;-69
2022/05/20 02:25:34;;;;;;;3.77;2.20;;;;;;;;;;5095073;28;20693;-71
2022/05/20 02:28:04;;;;;;;4.60;2.00;;;;;;;;;;5095325;28;20207;-70
2022/05/20 02:30:34;;;;;;;4.33;2.27;;;;;;;;;;5095393;28;20207;-70
2022/05/20 02:33:05;;;;;;;4.67;1.87;;;;;;;;;;5095383;28;20211;-71
2022/05/20 02:35:34;;;;;;;5.00;2.37;;;;;;;;;;5095248;28;20710;-69
2022/05/20 02:38:07;;;;;;;2.43;2.03;;;;;;;;;;5095327;28;20573;-68
2022/05/20 02:40:37;;;;;;;2.97;1.90;;;;;;;;;;5097417;28;20642;-71
2022/05/20 02:43:05;;;;;;;2.73;1.83;;;;;;;;;;5097039;28;20250;-70
2022/05/20 02:45:33;;;;;;;3.73;3.00;;;;;;;;;;5096848;28;20221;-68
2022/05/20 02:48:01;;;;;;;4.67;1.83;;;;;;;;;;5099570;28;20263;-71
2022/05/20 02:50:29;;;;;;;7.17;2.00;;;;;;;;;;5101006;28;20201;-71
2022/05/20 02:52:57;;;;;;;4.50;1.77;;;;;;;;;;5100879;28;20293;-71
2022/05/20 02:55:25;;;;;;;4.43;1.67;;;;;;;;;;5100876;28;20259;-71
2022/05/20 02:57:55;;;;;;;4.60;2.30;;;;;;;;;;5100287;28;20721;-71
2022/05/20 03:05:55;;;;;;;5.50;1.60;;;;;;;;;;5100303;28;20227;-70
2022/05/20 03:08:23;;;;;;;6.23;1.87;;;;;;;;;;5100333;28;20210;-70
2022/05/20 03:10:51;;;;;;;8.17;2.60;;;;;;;;;;5100211;28;20245;-69
2022/05/20 03:13:20;;;;;;;4.50;2.00;;;;;;;;;;5100107;28;20206;-68
2022/05/20 03:15:48;;;;;;;2.93;2.07;;;;;;;;;;5100489;28;20232;-70
2022/05/20 03:18:16;;;;;;;4.83;2.10;;;;;;;;;;5100562;28;20212;-70
2022/05/20 03:20:44;;;;;;;6.37;2.10;;;;;;;;;;5100397;28;20225;-70
2022/05/20 03:23:12;;;;;;;5.80;2.10;;;;;;;;;;5100353;28;20238;-70
2022/05/20 03:25:40;;;;;;;4.40;2.00;;;;;;;;;;5099926;28;20227;-70
2022/05/20 03:28:11;;;;;;;3.17;1.77;;;;;;;;;;5099941;28;20660;-70
2022/05/20 03:30:40;;;;;;;6.50;2.13;;;;;;;;;;5099991;28;20231;-70
2022/05/20 03:33:08;;;;;;;3.23;1.53;;;;;;;;;;5100035;28;20651;-70
2022/05/20 03:35:36;;;;;;;2.73;1.70;;;;;;;;;;5099740;28;20309;-70
2022/05/20 03:38:04;;;;;;;6.07;2.10;;;;;;;;;;5100188;28;20239;-70
2022/05/20 03:40:32;;;;;;;6.03;2.00;;;;;;;;;;5099906;28;20264;-70
2022/05/20 03:43:00;;;;;;;5.23;1.90;;;;;;;;;;5099814;28;20243;-70
2022/05/20 03:45:28;;;;;;;2.20;1.87;;;;;;;;;;5099787;28;20223;-70
2022/05/20 03:47:58;;;;;;;4.37;2.00;;;;;;;;;;5099687;28;20546;-70
2022/05/20 03:50:26;;;;;;;3.93;1.80;;;;;;;;;;5099821;28;20224;-70
2022/05/20 03:52:54;;;;;;;6.97;3.00;;;;;;;;;;5099531;28;20671;-70
2022/05/20 03:55:23;;;;;;;5.97;2.17;;;;;;;;;;5099653;28;20211;-70
2022/05/20 03:57:51;;;;;;;5.00;2.03;;;;;;;;;;5098699;28;20573;-71
2022/05/20 04:00:20;;;;;;;2.43;1.80;;;;;;;;;;5098157;28;20715;-70
2022/05/20 04:02:47;;;;;;;3.37;1.97;;;;;;;;;;5098157;28;20224;-71
2022/05/20 04:05:17;;;;;;;3.87;1.97;;;;;;;;;;5099076;28;20250;-71
2022/05/20 04:07:45;;;;;;;3.73;1.90;;;;;;;;;;5098631;28;20205;-71
2022/05/20 04:10:13;;;;;;;3.67;2.07;;;;;;;;;;5098040;28;20194;-71
2022/05/20 04:12:42;;;;;;;3.03;1.90;;;;;;;;;;5097316;28;20226;-71
2022/05/20 04:15:11;;;;;;;4.23;2.23;;;;;;;;;;5098894;28;20206;-71
2022/05/20 04:17:39;;;;;;;4.40;2.00;;;;;;;;;;5099254;28;20232;-71
2022/05/20 04:20:08;;;;;;;8.00;2.70;;;;;;;;;;5098561;28;20285;-71
2022/05/20 04:22:39;;;;;;;4.43;1.97;;;;;;;;;;5097720;28;20299;-70
2022/05/20 04:25:07;;;;;;;4.57;2.00;;;;;;;;;;5097747;28;20221;-71
2022/05/20 04:27:35;;;;;;;2.47;1.93;;;;;;;;;;5097448;28;20205;-72
2022/05/20 04:30:04;;;;;;;6.03;2.00;;;;;;;;;;5097780;28;20194;-73
2022/05/20 04:32:32;;;;;;;4.70;2.27;;;;;;;;;;5097724;28;20201;-72
2022/05/20 04:35:00;;;;;;;2.93;1.80;;;;;;;;;;5099099;28;20243;-73
2022/05/20 04:37:28;;;;;;;3.03;1.63;;;;;;;;;;5097760;28;20199;-73
2022/05/20 04:39:58;;;;;;;5.07;2.10;;;;;;;;;;5096101;28;20225;-72
2022/05/20 04:48:00;;;;;;;2.23;1.63;;;;;;;;;;5098947;28;20240;-71
2022/05/20 04:50:28;;;;;;;3.83;2.20;;;;;;;;;;5098682;28;20205;-71
2022/05/20 04:52:56;;;;;;;4.70;2.27;;;;;;;;;;5098178;28;20216;-69
2022/05/20 04:55:24;;;;;;;4.57;2.20;;;;;;;;;;5098219;28;20226;-69
2022/05/20 04:57:52;;;;;;;4.07;1.90;;;;;;;;;;5098019;28;20639;-69
2022/05/20 05:00:20;;;;;;;7.80;1.90;;;;;;;;;;5098514;28;20229;-69
2022/05/20 05:02:48;;;;;;;3.63;1.70;;;;;;;;;;5098222;28;20265;-69
2022/05/20 05:05:18;;;;;;;4.67;2.10;;;;;;;;;;5098286;28;20203;-68
2022/05/20 05:07:47;;;;;;;3.63;1.90;;;;;;;;;;5097817;28;20640;-70
2022/05/20 05:10:17;;;;;;;3.20;1.80;;;;;;;;;;5097992;28;20217;-68
2022/05/20 05:12:46;;;;;;;2.20;2.00;;;;;;;;;;5097736;28;20619;-69
2022/05/20 05:15:14;;;;;;;1.93;1.80;;;;;;;;;;5097876;28;20639;-69
2022/05/20 05:20:29;;;;;;;5.87;2.13;;;;;;;;;;5090015;28;20224;-69
2022/05/20 05:22:57;;;;;;;3.07;2.50;;;;;;;;;;5097699;28;20671;-69
2022/05/20 05:25:26;;;;;;;3.90;1.80;;;;;;;;;;5097837;28;20608;-68
2022/05/20 05:27:56;;;;;;;5.23;1.80;;;;;;;;;;5097833;28;20241;-69
2022/05/20 05:30:24;;;;;;;3.70;1.77;;;;;;;;;;5098040;28;20233;-69
2022/05/20 05:32:52;;;;;;;2.17;1.73;;;;;;;;;;5097921;28;20209;-69
2022/05/20 05:35:21;;;;;;;5.70;2.00;;;;;;;;;;5097641;28;20213;-69
2022/05/20 05:37:49;;;;;;;3.10;1.90;;;;;;;;;;5097588;28;20623;-69
2022/05/20 05:40:19;;;;;;;3.27;2.03;;;;;;;;;;5097587;28;20260;-70
2022/05/20 05:42:48;;;;;;;2.80;1.70;;;;;;;;;;5097506;28;20214;-69
2022/05/20 05:45:19;;;;;;;2.73;2.23;;;;;;;;;;5097757;28;20206;-69
2022/05/20 05:47:48;;;;;;;4.33;2.10;;;;;;;;;;5097789;28;20206;-69
2022/05/20 05:50:16;;;;;;;4.87;1.77;;;;;;;;;;5097838;28;20203;-70
2022/05/20 05:52:44;;;;;;;4.97;2.97;;;;;;;;;;5097802;28;20267;-69
2022/05/20 05:55:13;;;;;;;6.10;2.33;;;;;;;;;;5097497;28;20233;-70
2022/05/20 05:57:41;;;;;;;2.33;2.10;;;;;;;;;;5090556;28;20235;-77
2022/05/20 06:00:12;;;;;;;3.00;2.70;;;;;;;;;;5077346;28;20592;-77
2022/05/20 06:02:41;;;;;;;3.67;2.20;;;;;;;;;;5096207;28;20294;-79
2022/05/20 06:05:09;;;;;;;6.17;2.50;;;;;;;;;;5095906;28;20229;-78
2022/05/20 06:07:38;;;;;;;5.90;2.00;;;;;;;;;;5093018;28;20232;-78
2022/05/20 06:10:06;;;;;;;2.70;1.80;;;;;;;;;;5097144;28;20569;-79
2022/05/20 06:12:34;;;;;;;2.73;2.23;;;;;;;;;;5097220;28;20231;-79
2022/05/20 06:15:03;;;;;;;5.57;2.53;;;;;;;;;;5096954;28;20260;-78
2022/05/20 06:17:32;;;;;;;3.53;1.60;;;;;;;;;;5097001;28;20207;-78
2022/05/20 06:20:03;;;;;;;3.90;1.97;;;;;;;;;;5097031;28;20210;-79
2022/05/20 06:22:31;;;;;;;4.30;1.83;;;;;;;;;;5099140;28;20230;-78
2022/05/20 06:24:59;;;;;;;3.87;1.93;;;;;;;;;;5100967;28;20233;-78
2022/05/20 06:27:27;;;;;;;2.90;1.80;;;;;;;;;;5100524;28;20232;-78
2022/05/20 06:29:55;;;;;;;4.40;2.17;;;;;;;;;;5101021;28;20209;-79
2022/05/20 06:32:23;;;;;;;8.77;2.07;;;;;;;;;;5100792;28;20243;-78
2022/05/20 06:40:24;;;;;;;3.13;1.60;;;;;;;;;;5097867;28;20266;-75
2022/05/20 06:42:52;;;;;;;5.67;2.50;;;;;;;;;;5100040;28;20724;-75
2022/05/20 06:45:20;;;;;;;5.13;2.07;;;;;;;;;;5100627;28;20291;-78
2022/05/20 06:47:48;;;;;;;4.20;2.33;;;;;;;;;;5100450;28;20241;-73
2022/05/20 06:50:16;;;;;;;7.17;2.87;;;;;;;;;;5100308;28;20288;-72
2022/05/20 06:52:46;;;;;;;3.33;1.70;;;;;;;;;;5100209;28;20213;-77
2022/05/20 06:55:14;;;;;;;5.70;2.37;;;;;;;;;;5099552;28;20198;-76
2022/05/20 06:57:42;;;;;;;13.03;3.60;;;;;;;;;;5096223;28;20736;-76
2022/05/20 07:00:11;;;;;;;5.97;2.73;;;;;;;;;;5099197;28;20194;-65
2022/05/20 07:02:40;;;;;;;3.33;1.93;;;;;;;;;;5099564;28;20229;-75
2022/05/20 07:05:10;;;;;;;6.10;1.93;;;;;;;;;;5100167;28;20198;-74
2022/05/20 07:07:38;;;;;;;3.53;2.03;;;;;;;;;;5099733;28;20230;-76
2022/05/20 07:10:08;;;;;;;5.00;2.10;;;;;;;;;;5099588;28;20237;-77
2022/05/20 07:12:37;;;;;;;7.97;2.20;;;;;;;;;;5099420;28;20661;-77
2022/05/20 07:15:05;;;;;;;7.03;2.40;;;;;;;;;;5099507;28;20232;-74
2022/05/20 07:17:35;;;;;;;4.57;2.00;;;;;;;;;;5097127;28;20635;-73
2022/05/20 07:20:03;;;;;;;5.50;1.87;;;;;;;;;;5099500;28;20232;-76
2022/05/20 07:22:31;;;;;;;9.07;3.10;;;;;;;;;;5096871;28;20223;-75
2022/05/20 07:24:59;;;;;;;7.80;2.30;;;;;;;;;;5099159;28;20698;-75
2022/05/20 07:27:29;;;;;;;6.57;2.13;;;;;;;;;;5099280;28;20219;-77
2022/05/20 07:29:58;;;;;;;8.50;2.40;;;;;;;;;;5099680;28;20198;-77
2022/05/20 07:32:26;;;;;;;3.87;2.10;;;;;;;;;;5099354;28;20231;-77
2022/05/20 07:34:54;;;;;;;6.07;2.40;;;;;;;;;;5099048;28;20203;-74
2022/05/20 07:37:22;;;;;;;2.97;1.80;;;;;;;;;;5099235;28;20836;-74
2022/05/20 07:39:50;;;;;;;6.07;1.83;;;;;;;;;;5098844;28;20278;-74
2022/05/20 07:42:18;;;;;;;6.40;2.20;;;;;;;;;;5098880;28;20278;-75
2022/05/20 07:44:47;;;;;;;7.50;2.00;;;;;;;;;;5099126;28;20207;-74
2022/05/20 07:47:16;;;;;;;7.57;1.93;;;;;;;;;;5099018;28;20220;-74
2022/05/20 07:49:44;;;;;;;7.73;2.37;;;;;;;;;;5099351;28;20202;-74
2022/05/20 07:52:12;;;;;;;8.37;2.20;;;;;;;;;;5099295;28;20199;-75
2022/05/20 07:54:42;;;;;;;9.53;1.90;;;;;;;;;;5099377;28;20208;-74
2022/05/20 07:57:13;;;;;;;5.13;1.67;;;;;;;;;;5096809;28;20259;-75
2022/05/20 07:59:44;;;;;;;4.60;1.80;;;;;;;;;;5099336;28;20614;-74
2022/05/20 08:02:14;;;;;;;8.00;1.93;;;;;;;;;;5099098;28;20243;-74
2022/05/20 08:04:56;;;;;;;9.47;2.10;;;;;;;;;;5099732;28;20295;-74
2022/05/20 08:07:25;;;;;;;8.50;2.20;;;;;;;;;;5099100;28;20232;-75
2022/05/20 08:09:54;;;;;;;6.50;1.73;;;;;;;;;;5099524;28;20212;-74
2022/05/20 08:12:22;;;;;;;3.07;2.37;;;;;;;;;;5099047;28;20215;-74
2022/05/20 08:14:50;;;;;;;6.10;3.03;;;;;;;;;;5099089;28;20226;-74
2022/05/20 08:17:21;;;;;;;4.37;2.20;;;;;;;;;;5099306;28;20231;-74
2022/05/20 08:19:51;;;;;;;3.30;2.03;;;;;;;;;;5099400;28;20218;-74
2022/05/20 08:22:22;;;;;;;6.70;3.10;;;;;;;;;;5099030;28;20315;-75
2022/05/20 08:24:52;;;;;;;6.93;2.23;;;;;;;;;;5098457;28;20283;-75
2022/05/20 08:27:21;;;;;;;7.40;1.83;;;;;;;;;;5098663;28;20253;-75
2022/05/20 08:29:50;;;;;;;6.07;1.93;;;;;;;;;;5098476;28;20270;-75
2022/05/20 08:32:18;;;;;;;3.10;1.60;;;;;;;;;;5098845;28;20211;-74
2022/05/20 08:34:48;;;;;;;6.47;1.90;;;;;;;;;;5097803;28;20204;-75
2022/05/20 08:37:16;;;;;;;4.70;2.10;;;;;;;;;;5098452;28;20235;-74
2022/05/20 08:39:45;;;;;;;3.63;1.57;;;;;;;;;;5098222;28;20748;-75
2022/05/20 08:42:14;;;;;;;4.93;1.67;;;;;;;;;;5098308;28;20237;-75
2022/05/20 08:44:43;;;;;;;4.67;1.80;;;;;;;;;;5098206;28;20209;-74
2022/05/20 08:47:21;;;;;;;5.57;2.40;;;;;;;;;;5098191;28;20587;-75
2022/05/20 08:49:51;;;;;;;6.90;2.03;;;;;;;;;;5098475;28;20241;-75
2022/05/20 08:52:20;;;;;;;4.93;2.17;;;;;;;;;;5098423;28;20215;-75
2022/05/20 08:54:48;;;;;;;8.80;2.37;;;;;;;;;;5094619;28;20206;-75
2022/05/20 08:57:36;;;;;;;8.20;2.80;;;;;;;;;;5097726;28;20198;-75
2022/05/20 09:00:05;;;;;;;4.77;2.53;;;;;;;;;;5097675;28;20201;-75
2022/05/20 09:02:33;;;;;;;10.00;2.57;;;;;;;;;;5097609;28;20240;-74
2022/05/20 09:05:13;;;;;;;8.67;3.10;;;;;;;;;;5098065;28;20205;-75
2022/05/20 09:07:54;;;;;;;10.63;4.03;;;;;;;;;;5098054;28;20205;-74
2022/05/20 09:10:34;;;;;;;6.43;2.40;;;;;;;;;;5097171;28;20719;-75
2022/05/20 09:13:07;;;;;;;6.37;2.40;;;;;;;;;;5098193;28;20200;-75
2022/05/20 09:15:46;;;;;;;3.67;2.60;;;;;;;;;;5097628;28;20264;-74
2022/05/20 09:18:19;;;;;;;5.10;1.90;;;;;;;;;;5097737;28;20200;-74
2022/05/20 09:20:50;;;;;;;5.67;2.07;;;;;;;;;;5097731;28;20258;-74
2022/05/20 09:23:20;;;;;;;8.77;2.57;;;;;;;;;;5095505;28;20229;-74
2022/05/20 09:25:51;;;;;;;4.23;1.77;;;;;;;;;;5085954;28;20716;-75
2022/05/20 09:28:24;;;;;;;3.03;2.47;;;;;;;;;;5097351;28;20206;-74
2022/05/20 09:30:53;;;;;;;6.27;1.70;;;;;;;;;;5088301;28;20258;-74
2022/05/20 09:33:23;;;;;;;8.67;2.17;;;;;;;;;;5093918;28;20259;-74
2022/05/20 09:35:55;;;;;;;6.53;2.10;;;;;;;;;;5097772;28;20237;-74
2022/05/20 09:38:30;;;;;;;6.43;2.17;;;;;;;;;;5097679;28;20206;-74
2022/05/20 09:40:58;;;;;;;7.33;2.07;;;;;;;;;;5090246;28;20365;-74
2022/05/20 09:43:28;;;;;;;8.73;1.87;;;;;;;;;;5097038;28;20252;-76
2022/05/20 09:45:57;;;;;;;6.03;1.90;;;;;;;;;;5097095;28;20710;-76
2022/05/20 09:48:33;;;;;;;7.07;1.87;;;;;;;;;;5097457;28;20207;-76
2022/05/20 09:51:08;;;;;;;4.43;2.00;;;;;;;;;;5097509;28;20208;-77
2022/05/20 09:53:37;;;;;;;6.53;2.60;;;;;;;;;;5097125;28;20541;-77
2022/05/20 09:56:22;;;;;;;2.97;1.90;;;;;;;;;;5097409;28;20259;-77
2022/05/20 09:59:00;;;;;;;4.93;1.80;;;;;;;;;;5098379;28;20197;-78
2022/05/20 10:01:29;;;;;;;2.57;2.00;;;;;;;;;;5099491;28;20258;-78
2022/05/20 10:03:58;;;;;;;9.23;2.47;;;;;;;;;;5101352;28;20242;-77
2022/05/20 10:06:31;;;;;;;7.57;2.20;;;;;;;;;;5100233;28;20253;-78
2022/05/20 10:09:00;;;;;;;4.43;2.30;;;;;;;;;;5101075;28;20249;-75
2022/05/20 10:11:30;;;;;;;11.27;2.43;;;;;;;;;;5100811;28;20561;-73
2022/05/20 10:14:01;;;;;;;9.37;2.70;;;;;;;;;;5099725;28;20191;-76
2022/05/20 10:16:34;;;;;;;5.43;1.97;;;;;;;;;;5101055;28;20228;-74
2022/05/20 10:19:07;;;;;;;4.80;2.53;;;;;;;;;;5101350;28;20227;-74
2022/05/20 10:21:48;;;;;;;10.67;2.10;;;;;;;;;;5101457;28;20239;-74
2022/05/20 10:24:25;;;;;;;2.63;1.93;;;;;;;;;;5106914;28;20226;-77
2022/05/20 10:26:55;;;;;;;4.43;1.80;;;;;;;;;;5099195;28;20214;-74
2022/05/20 10:34:58;;;;;;;6.40;1.77;;;;;;;;;;5097514;28;20201;-73
2022/05/20 10:37:33;;;;;;;5.00;2.60;;;;;;;;;;5099772;28;20559;-74
2022/05/20 10:40:26;;;;;;;7.03;2.13;;;;;;;;;;5098653;28;20202;-72
2022/05/20 10:43:08;;;;;;;6.13;2.03;;;;;;;;;;5100596;28;20690;-70
2022/05/20 10:48:41;;;;;;;6.27;1.80;;;;;;;;;;5100464;28;20566;-72
2022/05/20 10:51:24;;;;;;;11.53;2.27;;;;;;;;;;5100831;28;20204;-73
2022/05/20 10:53:57;;;;;;;5.13;2.13;;;;;;;;;;5100337;28;20603;-74
2022/05/20 10:56:30;;;;;;;3.83;2.20;;;;;;;;;;5100181;28;20221;-72
2022/05/20 10:59:15;;;;;;;8.40;2.77;;;;;;;;;;5100344;28;20233;-71
2022/05/20 11:01:49;;;;;;;8.30;2.20;;;;;;;;;;5100546;28;20235;-74
2022/05/20 11:04:29;;;;;;;9.60;2.53;;;;;;;;;;5100354;28;20226;-73
2022/05/20 11:07:15;;;;;;;11.50;4.53;;;;;;;;;;5097757;28;20229;-75
2022/05/20 11:09:51;;;;;;;5.87;2.10;;;;;;;;;;5098902;28;20207;-78
2022/05/20 11:12:22;;;;;;;7.05;2.15;;;;;;;;;;5099535;28;20236;-79
2022/05/20 11:15:05;;;;;;;2.50;2.07;;;;;;;;;;5099780;28;20617;-77
2022/05/20 11:17:41;;;;;;;7.57;2.60;;;;;;;;;;5097782;28;20835;-77
2022/05/20 11:20:18;;;;;;;5.95;2.17;;;;;;;;;;5099897;28;20245;-78
2022/05/20 11:22:55;;;;;;;5.57;3.10;;;;;;;;;;5099803;28;20214;-78
2022/05/20 11:25:43;;;;;;;8.45;2.20;;;;;;;;;;5093450;28;20240;-77
2022/05/20 11:28:25;;;;;;;9.38;2.00;;;;;;;;;;5100096;28;20685;-77
2022/05/20 11:31:00;;;;;;;4.63;2.10;;;;;;;;;;5090940;28;20207;-77
2022/05/20 11:33:43;;;;;;;7.28;2.00;;;;;;;;;;5099762;28;20569;-77
2022/05/20 11:36:15;;;;;;;4.25;1.85;;;;;;;;;;5099961;28;20226;-74
2022/05/20 11:39:01;;;;;;;6.38;2.28;;;;;;;;;;5099563;28;20214;-76
2022/05/20 11:41:35;;;;;;;7.18;2.03;;;;;;;;;;5099550;28;20207;-74
2022/05/20 11:44:19;;;;;;;5.70;1.80;;;;;;;;;;5099700;28;20222;-75
2022/05/20 11:47:14;;;;;;;6.95;3.42;;;;;;;;;;5099684;28;20269;-74
2022/05/20 11:49:46;;;;;;;5.93;2.40;;;;;;;;;;5063396;28;20611;-76
2022/05/20 11:52:18;;;;;;;6.68;2.20;;;;;;;;;;5098213;28;20689;-76
2022/05/20 11:54:50;;;;;;;4.03;2.13;;;;;;;;;;5099257;28;20235;-75
2022/05/20 11:57:23;;;;;;;7.93;2.33;;;;;;;;;;5098999;28;20699;-74
2022/05/20 11:59:54;;;;;;;6.25;2.17;;;;;;;;;;5099193;28;20205;-75
2022/05/20 12:02:26;;;;;;;8.13;2.60;;;;;;;;;;5099126;28;20323;-74
2022/05/20 12:04:54;;;;;;;5.82;2.45;;;;;;;;;;5098803;28;20570;-74
2022/05/20 12:07:24;;;;;;;9.50;2.42;;;;;;;;;;5099338;28;20223;-75
2022/05/20 12:09:54;;;;;;;5.05;1.85;;;;;;;;;;5098938;28;20228;-74
2022/05/20 12:12:25;;;;;;;10.68;2.17;;;;;;;;;;5098646;28;20199;-74
2022/05/20 12:15:00;;;;;;;5.22;2.33;;;;;;;;;;5099024;28;20578;-74
2022/05/20 12:17:32;;;;;;;6.30;2.05;;;;;;;;;;5098938;28;20238;-73
2022/05/20 12:26:20;;;;;;;11.55;2.55;;;;;;;;;;5014002;28;20262;-73
2022/05/20 12:28:49;;;;;;;9.68;3.65;;;;;;;;;;5081972;28;20219;-72
2022/05/20 12:31:24;;;;;;;5.75;3.03;;;;;;;;;;5098766;28;20240;-72
2022/05/20 12:33:54;;;;;;;6.22;2.28;;;;;;;;;;5095707;28;20205;-72
2022/05/20 12:36:24;;;;;;;4.57;2.00;;;;;;;;;;5098619;28;20227;-75
2022/05/20 12:38:52;;;;;;;4.63;2.08;;;;;;;;;;5098310;28;20208;-74
2022/05/20 12:41:21;;;;;;;5.22;1.90;;;;;;;;;;5098302;28;20211;-74
2022/05/20 12:43:59;;;;;;;9.18;3.45;;;;;;;;;;5098417;28;20347;-74
2022/05/20 12:46:36;;;;;;;7.82;2.42;;;;;;;;;;5098382;28;20221;-74
2022/05/20 12:49:04;;;;;;;9.70;2.58;;;;;;;;;;5098224;28;20261;-74
2022/05/20 12:51:40;;;;;;;6.03;2.60;;;;;;;;;;5098175;28;20242;-74
2022/05/20 12:54:14;;;;;;;7.82;2.75;;;;;;;;;;5098364;28;20237;-74
2022/05/20 12:56:42;;;;;;;3.92;2.30;;;;;;;;;;5097836;28;20295;-75
2022/05/20 12:59:16;;;;;;;5.68;2.83;;;;;;;;;;5098189;28;20205;-74
2022/05/20 13:01:46;;;;;;;5.15;2.30;;;;;;;;;;5098012;28;20243;-74
2022/05/20 13:04:16;;;;;;;5.93;2.42;;;;;;;;;;5097775;28;20749;-74
2022/05/20 13:06:47;;;;;;;9.77;3.30;;;;;;;;;;5097938;28;20263;-74
2022/05/20 13:09:26;;;;;;;5.97;2.22;;;;;;;;;;5098097;28;20212;-75
2022/05/20 13:11:55;;;;;;;6.18;2.20;;;;;;;;;;5097507;28;20213;-75
2022/05/20 13:14:37;;;;;;;4.40;2.17;;;;;;;;;;5097740;28;20570;-74
2022/05/20 13:17:06;;;;;;;4.95;2.00;;;;;;;;;;5097995;28;20225;-74
2022/05/20 13:19:39;;;;;;;4.50;2.35;;;;;;;;;;5098072;28;20250;-74
2022/05/20 13:22:07;;;;;;;5.82;2.30;;;;;;;;;;5097641;28;20231;-74
2022/05/20 13:24:36;;;;;;;3.72;2.30;;;;;;;;;;5094962;28;20271;-77
2022/05/20 13:27:06;;;;;;;11.15;2.72;;;;;;;;;;5096736;28;20264;-75
2022/05/20 13:29:36;;;;;;;8.38;2.17;;;;;;;;;;5097895;28;20244;-75
2022/05/20 13:32:17;;;;;;;8.35;2.05;;;;;;;;;;5098008;28;20276;-74
2022/05/20 13:34:46;;;;;;;7.10;2.30;;;;;;;;;;5091171;28;20205;-73
2022/05/20 13:37:15;;;;;;;7.63;2.60;;;;;;;;;;5097863;28;20292;-73
2022/05/20 13:39:44;;;;;;;3.78;2.50;;;;;;;;;;5097730;28;20208;-74
2022/05/20 13:42:13;;;;;;;4.00;2.70;;;;;;;;;;5097591;28;20240;-74
2022/05/20 13:44:43;;;;;;;3.17;2.38;;;;;;;;;;5097389;28;20256;-75
2022/05/20 13:49:59;;;;;;;5.70;2.05;;;;;;;;;;5097875;28;20205;-74
2022/05/20 13:52:27;;;;;;;10.00;2.00;;;;;;;;;;5097897;28;20204;-75
2022/05/20 13:54:58;;;;;;;10.07;2.50;;;;;;;;;;5097321;28;20240;-73
2022/05/20 13:57:30;;;;;;;7.63;2.72;;;;;;;;;;5097135;28;20677;-74
2022/05/20 14:00:02;;;;;;;5.18;2.80;;;;;;;;;;5097634;28;20227;-74
2022/05/20 14:02:38;;;;;;;9.48;2.95;;;;;;;;;;5097347;28;20271;-74
2022/05/20 14:05:16;;;;;;;6.18;2.33;;;;;;;;;;5097614;28;20221;-74
2022/05/20 14:07:47;;;;;;;5.40;2.40;;;;;;;;;;5097298;28;20207;-74
2022/05/20 14:10:16;;;;;;;5.47;2.75;;;;;;;;;;5097119;28;20234;-75
2022/05/20 14:12:46;;;;;;;6.13;1.98;;;;;;;;;;5097622;28;20207;-73
2022/05/20 14:15:19;;;;;;;7.22;3.08;;;;;;;;;;5097342;28;20208;-75
2022/05/20 14:17:47;;;;;;;6.05;2.33;;;;;;;;;;5097398;28;20254;-75
2022/05/20 14:20:16;;;;;;;4.00;2.55;;;;;;;;;;5097153;28;20677;-75
2022/05/20 14:22:45;;;;;;;7.53;2.90;;;;;;;;;;5097135;28;20228;-75
2022/05/20 14:25:19;;;;;;;3.35;2.55;;;;;;;;;;5084036;28;20222;-75
2022/05/20 14:27:48;;;;;;;7.05;2.55;;;;;;;;;;5095663;28;20208;-75
2022/05/20 14:30:21;;;;;;;7.15;2.40;;;;;;;;;;5096859;28;20243;-75
2022/05/20 14:32:50;;;;;;;6.15;2.60;;;;;;;;;;5093561;28;20234;-75
2022/05/20 14:35:19;;;;;;;12.82;3.03;;;;;;;;;;5091669;28;20209;-75
2022/05/20 14:37:47;;;;;;;6.72;3.00;;;;;;;;;;5096248;28;20209;-75
2022/05/20 14:40:15;;;;;;;7.38;3.45;;;;;;;;;;5096711;28;20257;-75
2022/05/20 14:42:44;;;;;;;5.97;2.42;;;;;;;;;;5097665;28;20205;-75
2022/05/20 14:45:17;;;;;;;7.22;2.92;;;;;;;;;;5100673;28;20224;-75
2022/05/20 14:47:50;;;;;;;3.65;2.40;;;;;;;;;;5101075;28;20205;-75
2022/05/20 14:50:20;;;;;;;8.93;2.33;;;;;;;;;;5100825;28;20699;-76
2022/05/20 14:52:50;;;;;;;6.45;2.40;;;;;;;;;;5100898;28;20259;-75
2022/05/20 14:55:21;;;;;;;3.33;2.90;;;;;;;;;;5100313;28;20201;-75
2022/05/20 14:58:03;;;;;;;7.68;2.72;;;;;;;;;;5097009;28;20239;-75
2022/05/20 15:00:32;;;;;;;6.75;3.22;;;;;;;;;;5096684;28;20211;-73
2022/05/20 15:03:07;;;;;;;4.68;2.40;;;;;;;;;;5099076;28;20284;-77
2022/05/20 15:05:36;;;;;;;6.47;3.10;;;;;;;;;;5099339;28;20225;-74
2022/05/20 15:08:09;;;;;;;11.30;4.20;;;;;;;;;;5099111;28;20568;-75
2022/05/20 15:10:37;;;;;;;4.68;2.40;;;;;;;;;;5097280;28;20204;-75
2022/05/20 15:13:05;;;;;;;7.35;2.78;;;;;;;;;;5095461;28;20737;-72
2022/05/20 15:15:33;;;;;;;5.15;2.47;;;;;;;;;;5096185;28;20238;-73
2022/05/20 15:18:03;;;;;;;4.97;2.42;;;;;;;;;;5099108;28;20212;-73
2022/05/20 15:20:34;;;;;;;3.28;2.30;;;;;;;;;;5099008;28;20210;-73
2022/05/20 15:23:03;;;;;;;8.98;2.70;;;;;;;;;;5098984;28;20205;-75
2022/05/20 15:25:31;;;;;;;5.57;2.88;;;;;;;;;;5098724;28;20859;-78
2022/05/20 15:28:02;;;;;;;4.90;2.38;;;;;;;;;;5099241;28;20208;-77
2022/05/20 15:30:30;;;;;;;4.00;3.00;;;;;;;;;;5098672;28;20638;-77
2022/05/20 15:35:45;;;;;;;6.32;2.38;;;;;;;;;;5097473;28;20228;-76
2022/05/20 15:38:13;;;;;;;6.13;2.72;;;;;;;;;;5099072;28;20219;-77
2022/05/20 15:40:41;;;;;;;6.32;2.58;;;;;;;;;;5098529;28;20239;-77
2022/05/20 15:43:09;;;;;;;10.82;2.92;;;;;;;;;;5098722;28;20293;-78
2022/05/20 15:45:38;;;;;;;5.07;2.60;;;;;;;;;;5085200;28;20239;-76